sensor_id;sensor_type;location;lat;lon;timestamp;pressure;altitude;pressure_sealevel;temperature;humidity
15674;BME280;7937;48.090;16.212;2023-06-01T00:01:11;97901.28;;;8.36;80.90
15674;BME280;7937;48.090;16.212;2023-06-01T00:04:15;97979.34;;;8.72;81.08
15674;BME280;7937;48.090;16.212;2023-06-01T00:07:19;97962.13;;;8.74;81.11
15674;BME280;7937;48.090;16.212;2023-06-01T00:10:22;98034.03;;;9.28;80.94
15674;BME280;7937;48.090;16.212;2023-06-01T00:13:25;97895.69;;;8.44;80.54
15674;BME280;7937;48.090;16.212;2023-06-01T00:16:27;97936.91;;;8.65;80.91
15674;BME280;7937;48.090;16.212;2023-06-01T00:19:33;97977.69;;;8.89;81.42
15674;BME280;7937;48.090;16.212;2023-06-01T00:22:36;97961.63;;;8.96;81.03
15674;BME280;7937;48.090;16.212;2023-06-01T00:25:42;97887.25;;;8.29;81.09
15674;BME280;7937;48.090;16.212;2023-06-01T00:28:45;97791.38;;;7.70;81.26
15674;BME280;7937;48.090;16.212;2023-06-01T00:31:47;97813.19;;;7.91;81.74
15674;BME280;7937;48.090;16.212;2023-06-01T00:34:50;97894.47;;;8.22;82.19
15674;BME280;7937;48.090;16.212;2023-06-01T00:37:54;97716.53;;;7.13;82.41
15674;BME280;7937;48.090;16.212;2023-06-01T00:40:56;97677.44;;;6.90;82.50
15674;BME280;7937;48.090;16.212;2023-06-01T00:44:00;97999.34;;;9.04;82.69
15674;BME280;7937;48.090;16.212;2023-06-01T00:47:03;97838.53;;;7.87;82.94
15674;BME280;7937;48.090;16.212;2023-06-01T00:50:07;97997.84;;;8.97;83.67
15674;BME280;7937;48.090;16.212;2023-06-01T00:53:17;97774.19;;;7.36;83.54
15674;BME280;7937;48.090;16.212;2023-06-01T00:56:21;97719.47;;;7.05;83.91
15674;BME280;7937;48.090;16.212;2023-06-01T00:59:24;97999.16;;;8.88;84.55
15674;BME280;7937;48.090;16.212;2023-06-01T01:02:27;97714.53;;;7.09;84.24
15674;BME280;7937;48.090;16.212;2023-06-01T01:05:35;97804.31;;;7.42;84.47
15674;BME280;7937;48.090;16.212;2023-06-01T01:08:47;97861.44;;;7.81;85.00
15674;BME280;7937;48.090;16.212;2023-06-01T01:12:04;97982.41;;;8.69;84.51
15674;BME280;7937;48.090;16.212;2023-06-01T01:15:31;97731.75;;;7.00;84.41
15674;BME280;7937;48.090;16.212;2023-06-01T01:18:46;97894.56;;;8.15;84.39
15674;BME280;7937;48.090;16.212;2023-06-01T01:29:09;97818.88;;;7.76;84.39
15674;BME280;7937;48.090;16.212;2023-06-01T01:32:12;97943.72;;;8.43;84.19
15674;BME280;7937;48.090;16.212;2023-06-01T01:35:17;97991.78;;;8.90;83.68
15674;BME280;7937;48.090;16.212;2023-06-01T01:38:20;97852.03;;;7.85;84.40
15674;BME280;7937;48.090;16.212;2023-06-01T01:41:22;97715.50;;;6.89;84.39
15674;BME280;7937;48.090;16.212;2023-06-01T01:44:24;97986.63;;;8.58;85.00
15674;BME280;7937;48.090;16.212;2023-06-01T01:50:52;98000.84;;;8.45;86.33
15674;BME280;7937;48.090;16.212;2023-06-01T01:53:57;97776.66;;;7.13;85.90
15674;BME280;7937;48.090;16.212;2023-06-01T01:57:01;97927.13;;;8.04;85.98
15674;BME280;7937;48.090;16.212;2023-06-01T02:00:06;97688.63;;;6.42;85.73
15674;BME280;7937;48.090;16.212;2023-06-01T02:03:17;97768.84;;;7.18;85.31
15674;BME280;7937;48.090;16.212;2023-06-01T02:06:20;97672.03;;;6.54;85.63
15674;BME280;7937;48.090;16.212;2023-06-01T02:09:23;97839.19;;;7.64;85.54
15674;BME280;7937;48.090;16.212;2023-06-01T02:12:25;97841.38;;;7.67;85.25
15674;BME280;7937;48.090;16.212;2023-06-01T02:15:28;97797.66;;;7.33;85.78
15674;BME280;7937;48.090;16.212;2023-06-01T02:18:30;97918.06;;;8.12;86.06
15674;BME280;7937;48.090;16.212;2023-06-01T02:21:34;97812.50;;;7.40;86.01
15674;BME280;7937;48.090;16.212;2023-06-01T02:24:36;97839.81;;;7.41;86.43
15674;BME280;7937;48.090;16.212;2023-06-01T02:27:39;97827.94;;;7.43;86.56
15674;BME280;7937;48.090;16.212;2023-06-01T02:30:42;97590.41;;;5.69;86.15
15674;BME280;7937;48.090;16.212;2023-06-01T02:33:44;97875.31;;;7.83;86.01
15674;BME280;7937;48.090;16.212;2023-06-01T02:36:47;97860.19;;;7.65;86.33
15674;BME280;7937;48.090;16.212;2023-06-01T02:39:51;97960.50;;;8.37;86.52
15674;BME280;7937;48.090;16.212;2023-06-01T02:42:55;97895.28;;;7.86;86.02
15674;BME280;7937;48.090;16.212;2023-06-01T02:45:57;97820.22;;;7.42;86.13
15674;BME280;7937;48.090;16.212;2023-06-01T02:49:00;97559.44;;;5.76;86.23
15674;BME280;7937;48.090;16.212;2023-06-01T02:52:03;97646.66;;;6.21;85.96
15674;BME280;7937;48.090;16.212;2023-06-01T02:55:05;97689.59;;;6.48;85.88
15674;BME280;7937;48.090;16.212;2023-06-01T02:58:35;97613.41;;;6.00;85.96
15674;BME280;7937;48.090;16.212;2023-06-01T03:01:44;97964.91;;;8.24;86.37
15674;BME280;7937;48.090;16.212;2023-06-01T03:04:46;97845.19;;;7.53;86.21
15674;BME280;7937;48.090;16.212;2023-06-01T03:07:51;97729.25;;;6.80;86.11
15674;BME280;7937;48.090;16.212;2023-06-01T03:10:58;97751.84;;;6.82;87.08
15674;BME280;7937;48.090;16.212;2023-06-01T03:14:07;97856.19;;;7.56;87.44
15674;BME280;7937;48.090;16.212;2023-06-01T03:17:09;97810.69;;;7.09;87.67
15674;BME280;7937;48.090;16.212;2023-06-01T03:20:12;97958.50;;;8.07;87.48
15674;BME280;7937;48.090;16.212;2023-06-01T03:23:18;97946.06;;;8.08;87.54
15674;BME280;7937;48.090;16.212;2023-06-01T03:26:22;97845.59;;;7.31;87.26
15674;BME280;7937;48.090;16.212;2023-06-01T03:29:24;97841.00;;;7.45;87.57
15674;BME280;7937;48.090;16.212;2023-06-01T03:32:26;97976.75;;;8.22;87.38
15674;BME280;7937;48.090;16.212;2023-06-01T03:35:30;97842.22;;;7.42;87.85
15674;BME280;7937;48.090;16.212;2023-06-01T03:38:33;97831.25;;;7.39;87.99
15674;BME280;7937;48.090;16.212;2023-06-01T03:41:36;97705.63;;;6.53;87.67
15674;BME280;7937;48.090;16.212;2023-06-01T03:44:39;97694.13;;;6.41;88.30
15674;BME280;7937;48.090;16.212;2023-06-01T03:47:43;97901.72;;;7.71;88.78
15674;BME280;7937;48.090;16.212;2023-06-01T03:50:47;97681.16;;;6.33;89.25
15674;BME280;7937;48.090;16.212;2023-06-01T03:53:49;97737.94;;;6.62;89.27
15674;BME280;7937;48.090;16.212;2023-06-01T03:56:52;97942.31;;;8.15;89.27
15674;BME280;7937;48.090;16.212;2023-06-01T03:59:54;97923.75;;;8.15;89.40
15674;BME280;7937;48.090;16.212;2023-06-01T04:02:58;97751.41;;;7.10;89.01
15674;BME280;7937;48.090;16.212;2023-06-01T04:06:01;97865.66;;;7.89;88.59
15674;BME280;7937;48.090;16.212;2023-06-01T04:09:06;97652.59;;;6.41;88.69
15674;BME280;7937;48.090;16.212;2023-06-01T04:12:10;97940.81;;;8.44;88.87
15674;BME280;7937;48.090;16.212;2023-06-01T04:15:17;97837.34;;;7.83;88.71
15674;BME280;7937;48.090;16.212;2023-06-01T04:18:20;97764.97;;;7.39;88.37
15674;BME280;7937;48.090;16.212;2023-06-01T04:21:30;97431.25;;;5.10;87.84
15674;BME280;7937;48.090;16.212;2023-06-01T04:24:34;97445.69;;;5.39;88.40
15674;BME280;7937;48.090;16.212;2023-06-01T04:27:41;97768.81;;;7.43;88.73
15674;BME280;7937;48.090;16.212;2023-06-01T04:30:47;97610.22;;;6.48;88.41
15674;BME280;7937;48.090;16.212;2023-06-01T04:33:53;97510.44;;;5.80;88.55
15674;BME280;7937;48.090;16.212;2023-06-01T04:36:58;97951.22;;;8.64;88.80
15674;BME280;7937;48.090;16.212;2023-06-01T04:40:02;97954.00;;;8.69;89.10
15674;BME280;7937;48.090;16.212;2023-06-01T04:43:13;97925.09;;;8.61;88.65
15674;BME280;7937;48.090;16.212;2023-06-01T04:46:22;97944.47;;;8.80;88.96
15674;BME280;7937;48.090;16.212;2023-06-01T04:49:31;97946.22;;;8.86;89.18
15674;BME280;7937;48.090;16.212;2023-06-01T04:52:34;97939.25;;;8.92;90.24
15674;BME280;7937;48.090;16.212;2023-06-01T04:55:37;97932.41;;;8.96;90.05
15674;BME280;7937;48.090;16.212;2023-06-01T04:58:39;97929.69;;;9.02;90.58
15674;BME280;7937;48.090;16.212;2023-06-01T05:01:43;97929.72;;;9.14;90.61
15674;BME280;7937;48.090;16.212;2023-06-01T05:04:45;97914.00;;;9.13;90.20
15674;BME280;7937;48.090;16.212;2023-06-01T05:07:48;97926.19;;;9.32;89.92
15674;BME280;7937;48.090;16.212;2023-06-01T05:10:51;97923.19;;;9.40;90.15
15674;BME280;7937;48.090;16.212;2023-06-01T05:13:53;97917.31;;;9.50;90.28
15674;BME280;7937;48.090;16.212;2023-06-01T05:17:01;97919.22;;;9.61;89.75
15674;BME280;7937;48.090;16.212;2023-06-01T05:20:03;97926.63;;;9.71;90.14
15674;BME280;7937;48.090;16.212;2023-06-01T05:23:07;97928.91;;;9.79;89.71
15674;BME280;7937;48.090;16.212;2023-06-01T05:26:09;97902.19;;;9.74;89.54
15674;BME280;7937;48.090;16.212;2023-06-01T05:29:12;97923.50;;;9.97;89.45
15674;BME280;7937;48.090;16.212;2023-06-01T05:32:14;97920.25;;;10.07;89.20
15674;BME280;7937;48.090;16.212;2023-06-01T05:35:17;97917.81;;;10.17;89.55
15674;BME280;7937;48.090;16.212;2023-06-01T05:38:20;97914.13;;;10.30;88.83
15674;BME280;7937;48.090;16.212;2023-06-01T05:41:22;97908.53;;;10.43;88.72
15674;BME280;7937;48.090;16.212;2023-06-01T05:44:25;97906.06;;;10.53;88.46
15674;BME280;7937;48.090;16.212;2023-06-01T05:47:27;97913.00;;;10.66;88.39
15674;BME280;7937;48.090;16.212;2023-06-01T05:50:30;97916.69;;;10.77;88.20
15674;BME280;7937;48.090;16.212;2023-06-01T05:53:32;97909.94;;;10.86;87.42
15674;BME280;7937;48.090;16.212;2023-06-01T05:56:34;97881.88;;;10.83;87.06
15674;BME280;7937;48.090;16.212;2023-06-01T05:59:41;97904.72;;;11.08;86.47
15674;BME280;7937;48.090;16.212;2023-06-01T06:02:44;97918.75;;;11.32;86.42
15674;BME280;7937;48.090;16.212;2023-06-01T06:05:46;97914.50;;;11.48;86.12
15674;BME280;7937;48.090;16.212;2023-06-01T06:08:49;97908.34;;;11.64;85.52
15674;BME280;7937;48.090;16.212;2023-06-01T06:11:52;97912.16;;;11.85;84.13
15674;BME280;7937;48.090;16.212;2023-06-01T06:14:54;97915.78;;;12.12;83.35
15674;BME280;7937;48.090;16.212;2023-06-01T06:17:57;97918.91;;;12.26;83.34
15674;BME280;7937;48.090;16.212;2023-06-01T06:20:59;97918.66;;;12.50;82.29
15674;BME280;7937;48.090;16.212;2023-06-01T06:24:02;97906.13;;;12.72;82.19
15674;BME280;7937;48.090;16.212;2023-06-01T06:27:06;97908.47;;;13.17;81.54
15674;BME280;7937;48.090;16.212;2023-06-01T06:30:09;97911.47;;;13.48;80.68
15674;BME280;7937;48.090;16.212;2023-06-01T06:33:12;97921.91;;;13.82;80.42
15674;BME280;7937;48.090;16.212;2023-06-01T06:36:16;97922.13;;;14.12;79.16
15674;BME280;7937;48.090;16.212;2023-06-01T06:39:19;97923.88;;;14.34;78.32
15674;BME280;7937;48.090;16.212;2023-06-01T06:42:23;97926.69;;;14.59;78.46
15674;BME280;7937;48.090;16.212;2023-06-01T06:45:26;97921.94;;;14.82;77.47
15674;BME280;7937;48.090;16.212;2023-06-01T06:48:29;97924.16;;;15.05;76.12
15674;BME280;7937;48.090;16.212;2023-06-01T06:51:32;97922.88;;;15.23;74.21
15674;BME280;7937;48.090;16.212;2023-06-01T06:54:35;97926.66;;;15.42;73.90
15674;BME280;7937;48.090;16.212;2023-06-01T07:01:23;97857.66;;;15.33;72.67
15674;BME280;7937;48.090;16.212;2023-06-01T07:04:28;97836.19;;;15.38;72.33
15674;BME280;7937;48.090;16.212;2023-06-01T07:07:31;97681.09;;;14.48;70.99
15674;BME280;7937;48.090;16.212;2023-06-01T07:10:33;97723.75;;;14.85;70.21
15674;BME280;7937;48.090;16.212;2023-06-01T07:13:36;97693.16;;;14.86;69.69
15674;BME280;7937;48.090;16.212;2023-06-01T07:16:38;97704.16;;;15.00;69.29
15674;BME280;7937;48.090;16.212;2023-06-01T07:19:41;97677.88;;;14.87;69.27
15674;BME280;7937;48.090;16.212;2023-06-01T07:22:43;97913.88;;;16.70;69.06
15674;BME280;7937;48.090;16.212;2023-06-01T07:25:46;97773.88;;;15.82;67.88
15674;BME280;7937;48.090;16.212;2023-06-01T07:28:48;97748.09;;;15.70;67.26
15674;BME280;7937;48.090;16.212;2023-06-01T07:31:55;97909.47;;;17.00;67.40
15674;BME280;7937;48.090;16.212;2023-06-01T07:34:58;97728.78;;;15.68;65.89
15674;BME280;7937;48.090;16.212;2023-06-01T07:38:02;97719.59;;;15.80;65.58
15674;BME280;7937;48.090;16.212;2023-06-01T07:41:05;97711.28;;;15.71;64.44
15674;BME280;7937;48.090;16.212;2023-06-01T07:44:07;97657.34;;;15.62;64.56
15674;BME280;7937;48.090;16.212;2023-06-01T07:47:10;97862.63;;;17.01;64.64
15674;BME280;7937;48.090;16.212;2023-06-01T07:50:15;97913.25;;;17.72;64.76
15674;BME280;7937;48.090;16.212;2023-06-01T07:53:17;97765.22;;;16.94;64.24
15674;BME280;7937;48.090;16.212;2023-06-01T07:56:20;97651.34;;;16.30;63.07
15674;BME280;7937;48.090;16.212;2023-06-01T07:59:23;97932.31;;;18.15;63.22
15674;BME280;7937;48.090;16.212;2023-06-01T08:02:30;97762.91;;;17.16;61.40
15674;BME280;7937;48.090;16.212;2023-06-01T08:05:36;97901.34;;;18.37;59.84
15674;BME280;7937;48.090;16.212;2023-06-01T08:08:40;97910.03;;;18.58;59.69
15674;BME280;7937;48.090;16.212;2023-06-01T08:11:43;97874.72;;;18.54;56.47
15674;BME280;7937;48.090;16.212;2023-06-01T08:14:46;97736.00;;;17.74;53.27
15674;BME280;7937;48.090;16.212;2023-06-01T08:17:48;97689.59;;;17.77;53.41
15674;BME280;7937;48.090;16.212;2023-06-01T08:20:50;97644.75;;;17.63;49.99
15674;BME280;7937;48.090;16.212;2023-06-01T08:23:53;97642.22;;;17.95;45.13
15674;BME280;7937;48.090;16.212;2023-06-01T08:26:58;97869.75;;;19.42;49.02
15674;BME280;7937;48.090;16.212;2023-06-01T08:30:01;97664.94;;;18.27;48.21
15674;BME280;7937;48.090;16.212;2023-06-01T08:33:03;97791.00;;;19.16;44.65
15674;BME280;7937;48.090;16.212;2023-06-01T08:36:06;97702.00;;;18.78;45.82
15674;BME280;7937;48.090;16.212;2023-06-01T08:39:22;97693.88;;;18.97;44.47
15674;BME280;7937;48.090;16.212;2023-06-01T08:42:30;97843.88;;;19.87;46.14
15674;BME280;7937;48.090;16.212;2023-06-01T08:45:37;97803.75;;;19.80;41.70
15674;BME280;7937;48.090;16.212;2023-06-01T08:48:42;97559.88;;;18.54;37.95
15674;BME280;7937;48.090;16.212;2023-06-01T08:51:48;97627.13;;;18.84;38.37
15674;BME280;7937;48.090;16.212;2023-06-01T08:54:53;97788.63;;;20.07;37.92
15674;BME280;7937;48.090;16.212;2023-06-01T08:57:56;97731.34;;;19.77;37.67
15674;BME280;7937;48.090;16.212;2023-06-01T09:00:59;97882.69;;;20.93;39.41
15674;BME280;7937;48.090;16.212;2023-06-01T09:04:02;97803.00;;;20.44;37.47
15674;BME280;7937;48.090;16.212;2023-06-01T09:07:04;97759.25;;;20.14;37.33
15674;BME280;7937;48.090;16.212;2023-06-01T09:10:08;97889.97;;;21.06;38.03
15674;BME280;7937;48.090;16.212;2023-06-01T09:13:11;97610.59;;;19.45;39.64
15674;BME280;7937;48.090;16.212;2023-06-01T09:16:14;97753.63;;;20.52;41.11
15674;BME280;7937;48.090;16.212;2023-06-01T09:19:17;97680.94;;;20.09;36.64
15674;BME280;7937;48.090;16.212;2023-06-01T09:22:42;97819.59;;;20.92;37.39
15674;BME280;7937;48.090;16.212;2023-06-01T09:25:45;97738.69;;;20.41;41.60
15674;BME280;7937;48.090;16.212;2023-06-01T09:29:00;97854.72;;;21.33;36.46
15674;BME280;7937;48.090;16.212;2023-06-01T09:32:03;97732.16;;;20.55;38.31
15674;BME280;7937;48.090;16.212;2023-06-01T09:35:05;97679.00;;;20.23;37.27
15674;BME280;7937;48.090;16.212;2023-06-01T09:38:11;97607.91;;;19.73;38.08
15674;BME280;7937;48.090;16.212;2023-06-01T09:41:13;97653.84;;;20.23;38.23
15674;BME280;7937;48.090;16.212;2023-06-01T09:44:35;97844.09;;;21.68;39.90
15674;BME280;7937;48.090;16.212;2023-06-01T09:47:39;97742.44;;;21.03;38.06
15674;BME280;7937;48.090;16.212;2023-06-01T09:50:41;97706.25;;;20.63;38.79
15674;BME280;7937;48.090;16.212;2023-06-01T09:53:44;97698.78;;;20.82;37.31
15674;BME280;7937;48.090;16.212;2023-06-01T09:56:48;97623.09;;;20.19;39.35
15674;BME280;7937;48.090;16.212;2023-06-01T09:59:52;97847.16;;;21.75;39.71
15674;BME280;7937;48.090;16.212;2023-06-01T10:02:55;97594.63;;;19.99;44.46
15674;BME280;7937;48.090;16.212;2023-06-01T10:05:57;97518.03;;;19.40;45.96
15674;BME280;7937;48.090;16.212;2023-06-01T10:09:01;97667.53;;;20.40;39.35
15674;BME280;7937;48.090;16.212;2023-06-01T10:12:04;97614.81;;;20.15;40.34
15674;BME280;7937;48.090;16.212;2023-06-01T10:15:07;97831.28;;;21.91;38.73
15674;BME280;7937;48.090;16.212;2023-06-01T10:18:31;97630.31;;;20.59;39.20
15674;BME280;7937;48.090;16.212;2023-06-01T10:21:35;97823.72;;;22.10;40.08
15674;BME280;7937;48.090;16.212;2023-06-01T10:24:38;97558.44;;;20.53;39.12
15674;BME280;7937;48.090;16.212;2023-06-01T10:28:02;97598.72;;;20.77;37.11
15674;BME280;7937;48.090;16.212;2023-06-01T10:31:40;97822.22;;;22.27;36.42
15674;BME280;7937;48.090;16.212;2023-06-01T10:34:44;97811.63;;;22.17;37.45
15674;BME280;7937;48.090;16.212;2023-06-01T10:41:29;97704.19;;;21.67;38.54
15674;BME280;7937;48.090;16.212;2023-06-01T10:47:44;97578.13;;;20.99;42.81
15674;BME280;7937;48.090;16.212;2023-06-01T10:51:16;97804.41;;;22.60;38.65
15674;BME280;7937;48.090;16.212;2023-06-01T10:54:29;97679.88;;;21.84;39.16
15674;BME280;7937;48.090;16.212;2023-06-01T10:57:39;97716.50;;;22.13;38.05
15674;BME280;7937;48.090;16.212;2023-06-01T11:05:54;97780.81;;;22.87;38.20
15674;BME280;7937;48.090;16.212;2023-06-01T11:13:16;97782.41;;;22.88;39.34
15674;BME280;7937;48.090;16.212;2023-06-01T11:16:46;97379.38;;;20.29;39.29
15674;BME280;7937;48.090;16.212;2023-06-01T11:25:07;97700.59;;;22.55;38.52
15674;BME280;7937;48.090;16.212;2023-06-01T11:28:28;97599.78;;;21.96;36.47
15674;BME280;7937;48.090;16.212;2023-06-01T11:32:01;97505.59;;;21.35;36.58
15674;BME280;7937;48.090;16.212;2023-06-01T11:35:37;97547.41;;;21.60;35.79
15674;BME280;7937;48.090;16.212;2023-06-01T11:38:52;97339.22;;;20.53;37.29
15674;BME280;7937;48.090;16.212;2023-06-01T11:45:22;97375.44;;;20.75;35.04
15674;BME280;7937;48.090;16.212;2023-06-01T11:48:37;97494.00;;;21.70;35.23
15674;BME280;7937;48.090;16.212;2023-06-01T11:52:07;97324.47;;;20.68;35.35
15674;BME280;7937;48.090;16.212;2023-06-01T11:55:24;97430.88;;;21.43;35.05
15674;BME280;7937;48.090;16.212;2023-06-01T11:58:36;97225.38;;;20.32;35.35
15674;BME280;7937;48.090;16.212;2023-06-01T12:05:54;97352.41;;;21.03;34.14
15674;BME280;7937;48.090;16.212;2023-06-01T12:08:57;97731.63;;;23.70;34.93
15674;BME280;7937;48.090;16.212;2023-06-01T12:11:59;97732.66;;;23.86;35.83
15674;BME280;7937;48.090;16.212;2023-06-01T12:15:03;97548.50;;;22.81;34.70
15674;BME280;7937;48.090;16.212;2023-06-01T12:18:05;97462.53;;;22.29;35.58
15674;BME280;7937;48.090;16.212;2023-06-01T12:21:09;97581.84;;;22.99;34.38
15674;BME280;7937;48.090;16.212;2023-06-01T12:24:13;97720.19;;;23.85;35.00
15674;BME280;7937;48.090;16.212;2023-06-01T12:27:17;97712.03;;;23.85;34.92
15674;BME280;7937;48.090;16.212;2023-06-01T12:30:21;97304.13;;;21.31;35.38
15674;BME280;7937;48.090;16.212;2023-06-01T12:33:32;97676.50;;;23.82;36.43
15674;BME280;7937;48.090;16.212;2023-06-01T12:36:38;97519.69;;;22.97;37.23
15674;BME280;7937;48.090;16.212;2023-06-01T12:39:41;97557.22;;;23.63;36.19
15674;BME280;7937;48.090;16.212;2023-06-01T12:42:44;97312.56;;;22.03;34.65
15674;BME280;7937;48.090;16.212;2023-06-01T12:45:47;97666.94;;;24.26;35.51
15674;BME280;7937;48.090;16.212;2023-06-01T12:48:52;97654.34;;;23.71;34.47
15674;BME280;7937;48.090;16.212;2023-06-01T12:51:55;97269.34;;;21.42;34.09
15674;BME280;7937;48.090;16.212;2023-06-01T12:54:58;97394.25;;;22.10;34.51
15674;BME280;7937;48.090;16.212;2023-06-01T12:58:01;97374.00;;;21.99;34.72
15674;BME280;7937;48.090;16.212;2023-06-01T13:01:04;97415.72;;;22.41;34.39
15674;BME280;7937;48.090;16.212;2023-06-01T13:04:06;97262.69;;;21.40;37.03
15674;BME280;7937;48.090;16.212;2023-06-01T13:07:11;97315.66;;;21.84;35.54
15674;BME280;7937;48.090;16.212;2023-06-01T13:10:14;97372.72;;;21.96;33.94
15674;BME280;7937;48.090;16.212;2023-06-01T13:13:41;97665.47;;;24.08;36.13
15674;BME280;7937;48.090;16.212;2023-06-01T13:16:46;97436.06;;;22.64;34.71
15674;BME280;7937;48.090;16.212;2023-06-01T13:19:49;97303.94;;;22.01;34.01
15674;BME280;7937;48.090;16.212;2023-06-01T13:22:56;97379.56;;;22.20;34.46
15674;BME280;7937;48.090;16.212;2023-06-01T13:26:00;97381.91;;;22.30;36.35
15674;BME280;7937;48.090;16.212;2023-06-01T13:29:03;97552.66;;;23.55;37.58
15674;BME280;7937;48.090;16.212;2023-06-01T13:32:08;97301.13;;;21.97;35.71
15674;BME280;7937;48.090;16.212;2023-06-01T13:35:11;97455.81;;;22.82;35.24
15674;BME280;7937;48.090;16.212;2023-06-01T13:38:14;97388.91;;;22.39;37.64
15674;BME280;7937;48.090;16.212;2023-06-01T13:41:17;97270.56;;;21.71;36.43
15674;BME280;7937;48.090;16.212;2023-06-01T13:44:19;97448.59;;;22.86;35.59
15674;BME280;7937;48.090;16.212;2023-06-01T13:47:23;97302.88;;;21.93;35.96
15674;BME280;7937;48.090;16.212;2023-06-01T13:50:25;97367.97;;;22.40;36.38
15674;BME280;7937;48.090;16.212;2023-06-01T13:53:28;97373.69;;;22.18;39.05
15674;BME280;7937;48.090;16.212;2023-06-01T13:56:31;97493.94;;;22.95;38.95
15674;BME280;7937;48.090;16.212;2023-06-01T13:59:34;97612.81;;;23.44;38.81
15674;BME280;7937;48.090;16.212;2023-06-01T14:02:38;97297.22;;;21.60;38.24
15674;BME280;7937;48.090;16.212;2023-06-01T14:05:41;97143.44;;;20.58;37.78
15674;BME280;7937;48.090;16.212;2023-06-01T14:08:55;97323.38;;;21.56;43.55
15674;BME280;7937;48.090;16.212;2023-06-01T14:11:58;97255.38;;;20.97;43.80
15674;BME280;7937;48.090;16.212;2023-06-01T14:15:00;97308.59;;;21.19;44.99
15674;BME280;7937;48.090;16.212;2023-06-01T14:18:03;97322.59;;;20.95;45.97
15674;BME280;7937;48.090;16.212;2023-06-01T14:21:05;97279.59;;;20.84;45.36
15674;BME280;7937;48.090;16.212;2023-06-01T14:24:11;97550.63;;;22.40;44.56
15674;BME280;7937;48.090;16.212;2023-06-01T14:27:14;97123.31;;;19.90;45.28
15674;BME280;7937;48.090;16.212;2023-06-01T14:30:17;97202.94;;;20.32;48.40
15674;BME280;7937;48.090;16.212;2023-06-01T14:36:53;97487.78;;;21.69;50.06
15674;BME280;7937;48.090;16.212;2023-06-01T14:39:56;97313.78;;;20.54;51.08
15674;BME280;7937;48.090;16.212;2023-06-01T14:43:01;97562.16;;;22.29;48.91
15674;BME280;7937;48.090;16.212;2023-06-01T14:46:24;97092.75;;;19.23;47.29
15674;BME280;7937;48.090;16.212;2023-06-01T14:49:41;97397.22;;;21.53;45.06
15674;BME280;7937;48.090;16.212;2023-06-01T14:52:53;97589.41;;;22.67;48.29
15674;BME280;7937;48.090;16.212;2023-06-01T14:56:07;97368.19;;;21.45;47.78
15674;BME280;7937;48.090;16.212;2023-06-01T14:59:11;97263.34;;;20.76;48.05
15674;BME280;7937;48.090;16.212;2023-06-01T15:02:13;97286.75;;;20.98;49.04
15674;BME280;7937;48.090;16.212;2023-06-01T15:05:17;97185.28;;;20.26;48.56
15674;BME280;7937;48.090;16.212;2023-06-01T15:08:25;97077.50;;;19.84;47.71
15674;BME280;7937;48.090;16.212;2023-06-01T15:11:32;97325.47;;;21.16;48.48
15674;BME280;7937;48.090;16.212;2023-06-01T15:14:49;97455.22;;;22.04;47.89
15674;BME280;7937;48.090;16.212;2023-06-01T15:17:53;97438.97;;;21.60;47.82
15674;BME280;7937;48.090;16.212;2023-06-01T15:20:57;97049.69;;;19.18;48.46
15674;BME280;7937;48.090;16.212;2023-06-01T15:24:02;97439.44;;;21.71;48.04
15674;BME280;7937;48.090;16.212;2023-06-01T15:48:45;97512.03;;;21.74;51.92
15674;BME280;7937;48.090;16.212;2023-06-01T15:51:48;97464.50;;;21.33;52.62
15674;BME280;7937;48.090;16.212;2023-06-01T15:54:50;97442.91;;;21.11;53.74
15674;BME280;7937;48.090;16.212;2023-06-01T15:57:53;97303.75;;;20.06;53.68
15674;BME280;7937;48.090;16.212;2023-06-01T16:00:55;97528.72;;;21.33;54.02
15674;BME280;7937;48.090;16.212;2023-06-01T16:04:15;97398.78;;;20.53;53.74
15674;BME280;7937;48.090;16.212;2023-06-01T16:14:07;97485.22;;;20.98;54.43
15674;BME280;7937;48.090;16.212;2023-06-01T16:17:10;97487.78;;;20.95;54.63
15674;BME280;7937;48.090;16.212;2023-06-01T16:20:13;97474.06;;;20.91;54.89
15674;BME280;7937;48.090;16.212;2023-06-01T16:23:15;97480.44;;;20.86;54.86
15674;BME280;7937;48.090;16.212;2023-06-01T16:26:18;97480.25;;;20.83;55.40
15674;BME280;7937;48.090;16.212;2023-06-01T16:29:20;97474.97;;;20.78;55.22
15674;BME280;7937;48.090;16.212;2023-06-01T16:32:23;97472.91;;;20.75;55.60
15674;BME280;7937;48.090;16.212;2023-06-01T16:35:26;97468.91;;;20.72;56.53
15674;BME280;7937;48.090;16.212;2023-06-01T16:38:29;97470.63;;;20.68;57.21
15674;BME280;7937;48.090;16.212;2023-06-01T16:41:31;97426.53;;;20.36;57.42
15674;BME280;7937;48.090;16.212;2023-06-01T16:44:34;97462.00;;;20.57;57.61
15674;BME280;7937;48.090;16.212;2023-06-01T16:47:36;97464.69;;;20.57;58.59
15674;BME280;7937;48.090;16.212;2023-06-01T16:50:39;97450.34;;;20.48;58.57
15674;BME280;7937;48.090;16.212;2023-06-01T16:53:46;97459.75;;;20.51;58.70
15674;BME280;7937;48.090;16.212;2023-06-01T16:56:48;97478.00;;;20.45;59.23
15674;BME280;7937;48.090;16.212;2023-06-01T16:59:59;97277.44;;;19.14;59.50
15674;BME280;7937;48.090;16.212;2023-06-01T17:03:02;97446.72;;;20.30;61.09
15674;BME280;7937;48.090;16.212;2023-06-01T17:06:05;97461.25;;;20.12;61.29
15674;BME280;7937;48.090;16.212;2023-06-01T17:09:07;97213.53;;;18.28;61.71
15674;BME280;7937;48.090;16.212;2023-06-01T17:12:09;97381.50;;;19.33;62.30
15674;BME280;7937;48.090;16.212;2023-06-01T17:15:19;97386.84;;;19.11;63.57
15674;BME280;7937;48.090;16.212;2023-06-01T17:18:23;97457.28;;;19.51;64.36
15674;BME280;7937;48.090;16.212;2023-06-01T17:21:26;97440.81;;;19.25;64.22
15674;BME280;7937;48.090;16.212;2023-06-01T17:24:28;97461.16;;;19.22;64.88
15674;BME280;7937;48.090;16.212;2023-06-01T17:27:31;97451.06;;;19.00;65.24
15674;BME280;7937;48.090;16.212;2023-06-01T17:30:33;97467.69;;;18.94;65.78
15674;BME280;7937;48.090;16.212;2023-06-01T17:45:02;97472.78;;;18.21;68.66
15674;BME280;7937;48.090;16.212;2023-06-01T17:48:05;97444.56;;;18.00;68.95
15674;BME280;7937;48.090;16.212;2023-06-01T17:51:07;97470.72;;;17.99;69.07